sensor_id;sensor_type;location;lat;lon;timestamp;temperature;humidity
44729;DHT22;30457;53.590;9.922;2024-03-22T00:01:58;12.80;58.20
44729;DHT22;30457;53.590;9.922;2024-03-22T00:06:23;12.80;58.10
44729;DHT22;30457;53.590;9.922;2024-03-22T00:10:49;12.90;58.10
44729;DHT22;30457;53.590;9.922;2024-03-22T00:15:14;12.90;58.10
44729;DHT22;30457;53.590;9.922;2024-03-22T00:19:40;12.90;58.10
44729;DHT22;30457;53.590;9.922;2024-03-22T00:24:05;12.90;58.20
44729;DHT22;30457;53.590;9.922;2024-03-22T00:28:31;12.90;58.30
44729;DHT22;30457;53.590;9.922;2024-03-22T00:32:57;12.90;58.30
44729;DHT22;30457;53.590;9.922;2024-03-22T00:37:22;12.90;58.30
44729;DHT22;30457;53.590;9.922;2024-03-22T00:41:48;12.90;58.30
44729;DHT22;30457;53.590;9.922;2024-03-22T00:46:13;12.90;58.20
44729;DHT22;30457;53.590;9.922;2024-03-22T00:50:39;12.90;58.30
44729;DHT22;30457;53.590;9.922;2024-03-22T00:55:05;12.90;58.30
44729;DHT22;30457;53.590;9.922;2024-03-22T00:59:30;12.90;58.30
44729;DHT22;30457;53.590;9.922;2024-03-22T01:03:56;12.90;58.40
44729;DHT22;30457;53.590;9.922;2024-03-22T01:08:21;12.90;58.40
44729;DHT22;30457;53.590;9.922;2024-03-22T01:12:47;12.90;58.30
44729;DHT22;30457;53.590;9.922;2024-03-22T01:17:13;12.90;58.40
44729;DHT22;30457;53.590;9.922;2024-03-22T01:21:39;12.90;58.50
44729;DHT22;30457;53.590;9.922;2024-03-22T01:26:04;12.90;58.40
44729;DHT22;30457;53.590;9.922;2024-03-22T01:30:30;12.90;58.40
44729;DHT22;30457;53.590;9.922;2024-03-22T01:34:57;12.90;58.40
44729;DHT22;30457;53.590;9.922;2024-03-22T01:39:23;12.90;58.50
44729;DHT22;30457;53.590;9.922;2024-03-22T01:43:48;12.90;58.50
44729;DHT22;30457;53.590;9.922;2024-03-22T01:48:14;12.90;58.40
44729;DHT22;30457;53.590;9.922;2024-03-22T01:52:40;12.90;58.50
44729;DHT22;30457;53.590;9.922;2024-03-22T01:57:05;12.90;58.60
44729;DHT22;30457;53.590;9.922;2024-03-22T02:01:33;12.90;58.60
44729;DHT22;30457;53.590;9.922;2024-03-22T02:05:58;12.90;58.60
44729;DHT22;30457;53.590;9.922;2024-03-22T02:10:24;12.90;58.60
44729;DHT22;30457;53.590;9.922;2024-03-22T02:14:50;13.00;58.70
44729;DHT22;30457;53.590;9.922;2024-03-22T02:19:16;13.00;58.60
44729;DHT22;30457;53.590;9.922;2024-03-22T02:23:41;13.00;58.60
44729;DHT22;30457;53.590;9.922;2024-03-22T02:28:07;13.00;58.80
44729;DHT22;30457;53.590;9.922;2024-03-22T02:32:32;13.10;58.80
44729;DHT22;30457;53.590;9.922;2024-03-22T02:36:58;13.00;58.80
44729;DHT22;30457;53.590;9.922;2024-03-22T02:41:23;13.10;58.80
44729;DHT22;30457;53.590;9.922;2024-03-22T02:45:49;13.00;58.80
44729;DHT22;30457;53.590;9.922;2024-03-22T02:50:15;13.10;58.80
44729;DHT22;30457;53.590;9.922;2024-03-22T02:54:41;13.10;58.80
44729;DHT22;30457;53.590;9.922;2024-03-22T02:59:06;13.10;58.90
44729;DHT22;30457;53.590;9.922;2024-03-22T03:03:32;13.10;58.90
44729;DHT22;30457;53.590;9.922;2024-03-22T03:07:57;13.20;58.90
44729;DHT22;30457;53.590;9.922;2024-03-22T03:12:23;13.20;59.00
44729;DHT22;30457;53.590;9.922;2024-03-22T03:16:49;13.20;59.00
44729;DHT22;30457;53.590;9.922;2024-03-22T03:21:14;13.30;59.00
44729;DHT22;30457;53.590;9.922;2024-03-22T03:25:40;13.20;58.90
44729;DHT22;30457;53.590;9.922;2024-03-22T03:30:06;13.30;58.90
44729;DHT22;30457;53.590;9.922;2024-03-22T03:34:32;13.30;59.00
44729;DHT22;30457;53.590;9.922;2024-03-22T03:38:57;13.30;59.00
44729;DHT22;30457;53.590;9.922;2024-03-22T03:43:23;13.30;58.90
44729;DHT22;30457;53.590;9.922;2024-03-22T03:47:48;13.30;59.00
44729;DHT22;30457;53.590;9.922;2024-03-22T03:52:14;13.30;59.00
44729;DHT22;30457;53.590;9.922;2024-03-22T03:56:40;13.40;59.10
44729;DHT22;30457;53.590;9.922;2024-03-22T04:01:06;13.40;59.00
44729;DHT22;30457;53.590;9.922;2024-03-22T04:05:32;13.40;59.10
44729;DHT22;30457;53.590;9.922;2024-03-22T04:09:58;13.40;59.10
44729;DHT22;30457;53.590;9.922;2024-03-22T04:14:26;13.40;59.00
44729;DHT22;30457;53.590;9.922;2024-03-22T04:18:51;13.40;59.10
44729;DHT22;30457;53.590;9.922;2024-03-22T04:23:18;13.50;59.00
44729;DHT22;30457;53.590;9.922;2024-03-22T04:27:43;13.50;59.10
44729;DHT22;30457;53.590;9.922;2024-03-22T04:32:09;13.50;59.10
44729;DHT22;30457;53.590;9.922;2024-03-22T04:36:34;13.50;59.10
44729;DHT22;30457;53.590;9.922;2024-03-22T04:41:00;13.50;59.10
44729;DHT22;30457;53.590;9.922;2024-03-22T04:45:26;13.50;59.20
44729;DHT22;30457;53.590;9.922;2024-03-22T04:49:52;13.50;59.10
44729;DHT22;30457;53.590;9.922;2024-03-22T04:54:18;13.50;59.10
44729;DHT22;30457;53.590;9.922;2024-03-22T04:58:43;13.50;59.10
44729;DHT22;30457;53.590;9.922;2024-03-22T05:03:09;13.60;59.20
44729;DHT22;30457;53.590;9.922;2024-03-22T05:07:34;13.60;59.20
44729;DHT22;30457;53.590;9.922;2024-03-22T05:12:00;13.60;59.20
44729;DHT22;30457;53.590;9.922;2024-03-22T05:16:25;13.60;59.20
44729;DHT22;30457;53.590;9.922;2024-03-22T05:20:51;13.60;59.20
44729;DHT22;30457;53.590;9.922;2024-03-22T05:25:17;13.60;59.30
44729;DHT22;30457;53.590;9.922;2024-03-22T05:29:43;13.60;59.30
44729;DHT22;30457;53.590;9.922;2024-03-22T05:34:08;13.60;59.40
44729;DHT22;30457;53.590;9.922;2024-03-22T05:38:34;13.60;59.40
44729;DHT22;30457;53.590;9.922;2024-03-22T05:43:00;13.60;59.50
44729;DHT22;30457;53.590;9.922;2024-03-22T05:47:25;13.70;59.50
44729;DHT22;30457;53.590;9.922;2024-03-22T05:51:51;13.70;59.40
44729;DHT22;30457;53.590;9.922;2024-03-22T05:56:20;13.70;59.50
44729;DHT22;30457;53.590;9.922;2024-03-22T06:00:45;13.70;59.60
44729;DHT22;30457;53.590;9.922;2024-03-22T06:05:11;13.70;59.70
44729;DHT22;30457;53.590;9.922;2024-03-22T06:09:36;13.80;59.70
44729;DHT22;30457;53.590;9.922;2024-03-22T06:14:02;13.80;59.70
44729;DHT22;30457;53.590;9.922;2024-03-22T06:18:28;13.80;59.80
44729;DHT22;30457;53.590;9.922;2024-03-22T06:22:53;13.80;59.80
44729;DHT22;30457;53.590;9.922;2024-03-22T06:27:19;13.90;59.80
44729;DHT22;30457;53.590;9.922;2024-03-22T06:31:45;13.90;59.90
44729;DHT22;30457;53.590;9.922;2024-03-22T06:36:10;13.90;59.80
44729;DHT22;30457;53.590;9.922;2024-03-22T06:40:36;14.00;60.00
44729;DHT22;30457;53.590;9.922;2024-03-22T06:45:02;14.00;60.00
44729;DHT22;30457;53.590;9.922;2024-03-22T06:49:28;14.10;60.00
44729;DHT22;30457;53.590;9.922;2024-03-22T06:53:53;14.10;60.00
44729;DHT22;30457;53.590;9.922;2024-03-22T06:58:19;14.10;60.00
44729;DHT22;30457;53.590;9.922;2024-03-22T07:02:45;14.20;60.00
44729;DHT22;30457;53.590;9.922;2024-03-22T07:07:10;14.20;59.90
44729;DHT22;30457;53.590;9.922;2024-03-22T07:11:36;14.30;59.90
44729;DHT22;30457;53.590;9.922;2024-03-22T07:16:02;14.30;59.90
44729;DHT22;30457;53.590;9.922;2024-03-22T07:20:30;14.30;60.00
44729;DHT22;30457;53.590;9.922;2024-03-22T07:24:55;14.40;60.00
44729;DHT22;30457;53.590;9.922;2024-03-22T07:29:21;14.40;60.00
44729;DHT22;30457;53.590;9.922;2024-03-22T07:33:46;14.40;59.90
44729;DHT22;30457;53.590;9.922;2024-03-22T07:38:12;14.50;60.00
44729;DHT22;30457;53.590;9.922;2024-03-22T07:42:37;14.60;60.10
44729;DHT22;30457;53.590;9.922;2024-03-22T07:47:03;14.60;60.00
44729;DHT22;30457;53.590;9.922;2024-03-22T07:51:29;14.60;60.80
44729;DHT22;30457;53.590;9.922;2024-03-22T07:55:54;14.60;60.10
44729;DHT22;30457;53.590;9.922;2024-03-22T08:00:20;14.70;60.10
44729;DHT22;30457;53.590;9.922;2024-03-22T08:04:45;14.70;60.20
44729;DHT22;30457;53.590;9.922;2024-03-22T08:09:11;14.70;60.20
44729;DHT22;30457;53.590;9.922;2024-03-22T08:13:37;14.70;60.20
44729;DHT22;30457;53.590;9.922;2024-03-22T08:18:02;14.70;60.20
44729;DHT22;30457;53.590;9.922;2024-03-22T08:22:29;14.70;60.20
44729;DHT22;30457;53.590;9.922;2024-03-22T08:26:54;14.70;60.50
44729;DHT22;30457;53.590;9.922;2024-03-22T08:31:21;14.70;60.70
44729;DHT22;30457;53.590;9.922;2024-03-22T08:35:50;14.80;60.70
44729;DHT22;30457;53.590;9.922;2024-03-22T08:40:16;14.70;60.80
44729;DHT22;30457;53.590;9.922;2024-03-22T08:44:42;14.80;60.80
44729;DHT22;30457;53.590;9.922;2024-03-22T08:49:08;14.80;61.00
44729;DHT22;30457;53.590;9.922;2024-03-22T08:53:33;14.80;61.00
44729;DHT22;30457;53.590;9.922;2024-03-22T08:57:59;14.80;61.10
44729;DHT22;30457;53.590;9.922;2024-03-22T09:02:24;14.80;60.90
44729;DHT22;30457;53.590;9.922;2024-03-22T09:06:50;14.90;61.10
44729;DHT22;30457;53.590;9.922;2024-03-22T09:11:16;14.80;61.10
44729;DHT22;30457;53.590;9.922;2024-03-22T09:15:43;14.90;61.40
44729;DHT22;30457;53.590;9.922;2024-03-22T09:20:09;14.90;61.20
44729;DHT22;30457;53.590;9.922;2024-03-22T09:24:35;14.90;61.40
44729;DHT22;30457;53.590;9.922;2024-03-22T09:29:01;14.90;61.60
44729;DHT22;30457;53.590;9.922;2024-03-22T09:33:27;14.90;61.50
44729;DHT22;30457;53.590;9.922;2024-03-22T09:37:52;14.90;61.50
44729;DHT22;30457;53.590;9.922;2024-03-22T09:42:18;14.90;61.40
44729;DHT22;30457;53.590;9.922;2024-03-22T09:46:44;14.90;61.60
44729;DHT22;30457;53.590;9.922;2024-03-22T09:51:11;14.90;61.30
44729;DHT22;30457;53.590;9.922;2024-03-22T09:55:37;14.90;61.50
44729;DHT22;30457;53.590;9.922;2024-03-22T10:00:08;14.90;61.50
44729;DHT22;30457;53.590;9.922;2024-03-22T10:04:40;14.90;61.60
44729;DHT22;30457;53.590;9.922;2024-03-22T10:09:06;14.90;61.70
44729;DHT22;30457;53.590;9.922;2024-03-22T10:13:33;14.90;61.40
44729;DHT22;30457;53.590;9.922;2024-03-22T10:17:59;15.00;61.70
44729;DHT22;30457;53.590;9.922;2024-03-22T10:22:25;14.90;61.60
44729;DHT22;30457;53.590;9.922;2024-03-22T10:26:51;14.90;61.80
44729;DHT22;30457;53.590;9.922;2024-03-22T10:31:16;14.90;61.80
44729;DHT22;30457;53.590;9.922;2024-03-22T10:35:44;14.90;62.00
44729;DHT22;30457;53.590;9.922;2024-03-22T10:40:11;14.90;61.90
44729;DHT22;30457;53.590;9.922;2024-03-22T10:44:36;14.90;62.00
44729;DHT22;30457;53.590;9.922;2024-03-22T10:49:02;14.90;61.90
44729;DHT22;30457;53.590;9.922;2024-03-22T10:53:32;14.90;62.20
44729;DHT22;30457;53.590;9.922;2024-03-22T10:57:59;14.90;62.60
44729;DHT22;30457;53.590;9.922;2024-03-22T11:02:25;14.90;62.30
44729;DHT22;30457;53.590;9.922;2024-03-22T11:06:52;14.90;62.20
44729;DHT22;30457;53.590;9.922;2024-03-22T11:11:23;14.90;62.20
44729;DHT22;30457;53.590;9.922;2024-03-22T11:15:49;14.80;62.10
44729;DHT22;30457;53.590;9.922;2024-03-22T11:20:15;14.90;62.00
44729;DHT22;30457;53.590;9.922;2024-03-22T11:24:41;14.80;62.00
44729;DHT22;30457;53.590;9.922;2024-03-22T11:29:07;14.90;62.30
44729;DHT22;30457;53.590;9.922;2024-03-22T11:33:33;14.80;62.00
44729;DHT22;30457;53.590;9.922;2024-03-22T11:37:59;14.80;62.10
44729;DHT22;30457;53.590;9.922;2024-03-22T11:42:25;14.80;62.20
44729;DHT22;30457;53.590;9.922;2024-03-22T11:46:51;14.80;62.30
44729;DHT22;30457;53.590;9.922;2024-03-22T11:51:17;14.80;62.40
44729;DHT22;30457;53.590;9.922;2024-03-22T11:55:42;14.80;62.10
44729;DHT22;30457;53.590;9.922;2024-03-22T12:00:08;14.90;62.10
44729;DHT22;30457;53.590;9.922;2024-03-22T12:04:49;14.90;61.90
44729;DHT22;30457;53.590;9.922;2024-03-22T12:09:15;15.00;61.80
44729;DHT22;30457;53.590;9.922;2024-03-22T12:13:41;15.00;61.70
44729;DHT22;30457;53.590;9.922;2024-03-22T12:18:06;15.00;61.80
44729;DHT22;30457;53.590;9.922;2024-03-22T12:22:32;15.00;61.70
44729;DHT22;30457;53.590;9.922;2024-03-22T12:26:57;15.00;61.90
44729;DHT22;30457;53.590;9.922;2024-03-22T12:31:23;15.10;61.80
44729;DHT22;30457;53.590;9.922;2024-03-22T12:35:48;15.10;61.70
44729;DHT22;30457;53.590;9.922;2024-03-22T12:40:14;15.00;61.90
44729;DHT22;30457;53.590;9.922;2024-03-22T12:44:40;15.00;62.10
44729;DHT22;30457;53.590;9.922;2024-03-22T12:49:05;15.10;62.50
44729;DHT22;30457;53.590;9.922;2024-03-22T12:53:31;15.10;62.30
44729;DHT22;30457;53.590;9.922;2024-03-22T12:57:57;15.00;62.50
44729;DHT22;30457;53.590;9.922;2024-03-22T13:02:23;15.00;62.80
44729;DHT22;30457;53.590;9.922;2024-03-22T13:06:49;15.00;62.50
44729;DHT22;30457;53.590;9.922;2024-03-22T13:11:15;15.00;62.10
44729;DHT22;30457;53.590;9.922;2024-03-22T13:15:43;15.00;62.60
44729;DHT22;30457;53.590;9.922;2024-03-22T13:20:09;15.00;62.80
44729;DHT22;30457;53.590;9.922;2024-03-22T13:24:40;15.00;62.70
44729;DHT22;30457;53.590;9.922;2024-03-22T13:29:05;15.00;62.30
44729;DHT22;30457;53.590;9.922;2024-03-22T13:33:31;15.00;62.00
44729;DHT22;30457;53.590;9.922;2024-03-22T13:37:57;15.00;62.10
44729;DHT22;30457;53.590;9.922;2024-03-22T13:42:24;14.90;61.90
44729;DHT22;30457;53.590;9.922;2024-03-22T13:46:53;14.90;61.90
44729;DHT22;30457;53.590;9.922;2024-03-22T13:51:18;14.90;61.90
44729;DHT22;30457;53.590;9.922;2024-03-22T13:55:44;14.80;61.70
44729;DHT22;30457;53.590;9.922;2024-03-22T14:00:10;14.80;61.40
44729;DHT22;30457;53.590;9.922;2024-03-22T14:04:39;14.80;61.50
44729;DHT22;30457;53.590;9.922;2024-03-22T14:09:05;14.80;61.70
44729;DHT22;30457;53.590;9.922;2024-03-22T14:13:33;14.80;62.20
44729;DHT22;30457;53.590;9.922;2024-03-22T14:17:58;14.80;61.90
44729;DHT22;30457;53.590;9.922;2024-03-22T14:22:24;14.80;62.50
44729;DHT22;30457;53.590;9.922;2024-03-22T14:26:49;14.70;61.40
44729;DHT22;30457;53.590;9.922;2024-03-22T14:31:15;14.70;61.30
44729;DHT22;30457;53.590;9.922;2024-03-22T14:35:41;14.70;61.50
44729;DHT22;30457;53.590;9.922;2024-03-22T14:40:07;14.70;61.10
44729;DHT22;30457;53.590;9.922;2024-03-22T14:44:35;14.60;60.60
44729;DHT22;30457;53.590;9.922;2024-03-22T14:49:01;14.60;60.30
44729;DHT22;30457;53.590;9.922;2024-03-22T14:53:26;14.50;60.30
44729;DHT22;30457;53.590;9.922;2024-03-22T14:57:52;14.50;60.40
44729;DHT22;30457;53.590;9.922;2024-03-22T15:02:18;14.50;60.40
44729;DHT22;30457;53.590;9.922;2024-03-22T15:06:43;14.40;60.40
44729;DHT22;30457;53.590;9.922;2024-03-22T15:11:10;14.40;60.30
44729;DHT22;30457;53.590;9.922;2024-03-22T15:15:36;14.40;60.00
44729;DHT22;30457;53.590;9.922;2024-03-22T15:20:01;14.30;59.80
44729;DHT22;30457;53.590;9.922;2024-03-22T15:24:29;14.30;59.50
44729;DHT22;30457;53.590;9.922;2024-03-22T15:28:54;14.30;59.10
44729;DHT22;30457;53.590;9.922;2024-03-22T15:33:20;14.30;58.70
44729;DHT22;30457;53.590;9.922;2024-03-22T15:37:46;14.20;57.90
44729;DHT22;30457;53.590;9.922;2024-03-22T15:42:12;14.20;58.40
44729;DHT22;30457;53.590;9.922;2024-03-22T15:46:37;14.20;58.40
44729;DHT22;30457;53.590;9.922;2024-03-22T15:51:03;14.20;58.00
44729;DHT22;30457;53.590;9.922;2024-03-22T15:55:28;14.20;58.20
44729;DHT22;30457;53.590;9.922;2024-03-22T15:59:57;14.20;58.30
44729;DHT22;30457;53.590;9.922;2024-03-22T16:04:22;14.30;58.20
44729;DHT22;30457;53.590;9.922;2024-03-22T16:08:48;14.20;58.20
44729;DHT22;30457;53.590;9.922;2024-03-22T16:13:13;14.30;58.10
44729;DHT22;30457;53.590;9.922;2024-03-22T16:17:39;14.20;57.80
44729;DHT22;30457;53.590;9.922;2024-03-22T16:22:06;14.30;57.30
44729;DHT22;30457;53.590;9.922;2024-03-22T16:26:31;14.30;57.40
44729;DHT22;30457;53.590;9.922;2024-03-22T16:30:57;14.20;57.30
44729;DHT22;30457;53.590;9.922;2024-03-22T16:35:22;14.20;57.20
44729;DHT22;30457;53.590;9.922;2024-03-22T16:39:48;14.20;57.00
44729;DHT22;30457;53.590;9.922;2024-03-22T16:44:14;14.20;57.00
44729;DHT22;30457;53.590;9.922;2024-03-22T16:48:41;14.20;57.10
44729;DHT22;30457;53.590;9.922;2024-03-22T16:53:06;14.20;57.00
44729;DHT22;30457;53.590;9.922;2024-03-22T16:57:32;14.10;56.90
44729;DHT22;30457;53.590;9.922;2024-03-22T17:01:57;14.10;56.90
44729;DHT22;30457;53.590;9.922;2024-03-22T17:06:23;14.00;56.60
44729;DHT22;30457;53.590;9.922;2024-03-22T17:10:48;14.00;56.80
44729;DHT22;30457;53.590;9.922;2024-03-22T17:15:17;14.00;57.10
44729;DHT22;30457;53.590;9.922;2024-03-22T17:19:43;13.90;56.90
44729;DHT22;30457;53.590;9.922;2024-03-22T17:24:08;13.90;57.00
44729;DHT22;30457;53.590;9.922;2024-03-22T17:28:34;13.90;57.00
44729;DHT22;30457;53.590;9.922;2024-03-22T17:33:00;13.80;57.20
44729;DHT22;30457;53.590;9.922;2024-03-22T17:37:26;13.80;57.20
44729;DHT22;30457;53.590;9.922;2024-03-22T17:41:52;13.80;57.20
44729;DHT22;30457;53.590;9.922;2024-03-22T17:46:18;13.80;57.20
44729;DHT22;30457;53.590;9.922;2024-03-22T17:50:44;13.80;57.20
44729;DHT22;30457;53.590;9.922;2024-03-22T17:55:09;13.80;57.40
44729;DHT22;30457;53.590;9.922;2024-03-22T17:59:35;13.80;57.40
44729;DHT22;30457;53.590;9.922;2024-03-22T18:04:00;13.80;57.40
44729;DHT22;30457;53.590;9.922;2024-03-22T18:08:26;13.80;57.50
44729;DHT22;30457;53.590;9.922;2024-03-22T18:12:52;13.80;57.50
44729;DHT22;30457;53.590;9.922;2024-03-22T18:17:18;13.80;57.50
44729;DHT22;30457;53.590;9.922;2024-03-22T18:21:44;13.80;57.40
44729;DHT22;30457;53.590;9.922;2024-03-22T18:26:10;13.80;57.40
44729;DHT22;30457;53.590;9.922;2024-03-22T18:30:35;13.80;57.50
44729;DHT22;30457;53.590;9.922;2024-03-22T18:35:01;13.70;57.50
44729;DHT22;30457;53.590;9.922;2024-03-22T18:39:27;13.80;57.60
44729;DHT22;30457;53.590;9.922;2024-03-22T18:43:53;13.70;57.50
44729;DHT22;30457;53.590;9.922;2024-03-22T18:48:18;13.70;57.60
44729;DHT22;30457;53.590;9.922;2024-03-22T18:52:44;13.60;57.50
44729;DHT22;30457;53.590;9.922;2024-03-22T18:57:09;13.60;57.60
44729;DHT22;30457;53.590;9.922;2024-03-22T19:01:35;13.60;57.60
44729;DHT22;30457;53.590;9.922;2024-03-22T19:06:01;13.60;57.70
44729;DHT22;30457;53.590;9.922;2024-03-22T19:10:26;13.50;57.60
44729;DHT22;30457;53.590;9.922;2024-03-22T19:14:52;13.50;57.50
44729;DHT22;30457;53.590;9.922;2024-03-22T19:19:17;13.50;57.50
44729;DHT22;30457;53.590;9.922;2024-03-22T19:23:44;13.50;57.50
44729;DHT22;30457;53.590;9.922;2024-03-22T19:28:10;13.50;57.60
44729;DHT22;30457;53.590;9.922;2024-03-22T19:32:35;13.40;57.50
44729;DHT22;30457;53.590;9.922;2024-03-22T19:37:01;13.40;57.60
44729;DHT22;30457;53.590;9.922;2024-03-22T19:41:27;13.40;57.80
44729;DHT22;30457;53.590;9.922;2024-03-22T19:45:52;13.40;57.90
44729;DHT22;30457;53.590;9.922;2024-03-22T19:50:19;13.40;57.90
44729;DHT22;30457;53.590;9.922;2024-03-22T19:54:45;13.30;57.80
44729;DHT22;30457;53.590;9.922;2024-03-22T19:59:11;13.30;57.60
44729;DHT22;30457;53.590;9.922;2024-03-22T20:03:36;13.20;57.40
44729;DHT22;30457;53.590;9.922;2024-03-22T20:08:02;13.20;57.50
44729;DHT22;30457;53.590;9.922;2024-03-22T20:12:28;13.10;57.70
44729;DHT22;30457;53.590;9.922;2024-03-22T20:16:53;13.10;57.70
44729;DHT22;30457;53.590;9.922;2024-03-22T20:21:19;13.00;57.60
44729;DHT22;30457;53.590;9.922;2024-03-22T20:25:45;13.00;57.60
44729;DHT22;30457;53.590;9.922;2024-03-22T20:30:12;13.00;57.60
44729;DHT22;30457;53.590;9.922;2024-03-22T20:34:38;12.90;57.60
